sensor_id;sensor_type;location;lat;lon;timestamp;P1;durP1;ratioP1;P2;durP2;ratioP2
5416;SDS011;2731;50.754;12.990;2023-04-03T00:01:21;4.28;;;1.80;;
5416;SDS011;2731;50.754;12.990;2023-04-03T00:03:48;5.50;;;1.27;;
5416;SDS011;2731;50.754;12.990;2023-04-03T00:06:16;7.97;;;1.88;;
5416;SDS011;2731;50.754;12.990;2023-04-03T00:08:42;5.82;;;1.50;;
5416;SDS011;2731;50.754;12.990;2023-04-03T00:11:08;7.93;;;1.55;;
5416;SDS011;2731;50.754;12.990;2023-04-03T00:13:35;4.18;;;1.45;;
5416;SDS011;2731;50.754;12.990;2023-04-03T00:16:01;6.68;;;1.35;;
5416;SDS011;2731;50.754;12.990;2023-04-03T00:18:28;7.20;;;2.00;;
5416;SDS011;2731;50.754;12.990;2023-04-03T00:20:55;6.70;;;1.50;;
5416;SDS011;2731;50.754;12.990;2023-04-03T00:23:21;5.88;;;1.73;;
5416;SDS011;2731;50.754;12.990;2023-04-03T00:25:51;12.88;;;1.90;;
5416;SDS011;2731;50.754;12.990;2023-04-03T00:28:19;1.98;;;0.90;;
5416;SDS011;2731;50.754;12.990;2023-04-03T00:30:48;4.45;;;1.17;;
5416;SDS011;2731;50.754;12.990;2023-04-03T00:33:14;6.65;;;1.48;;
5416;SDS011;2731;50.754;12.990;2023-04-03T00:35:40;4.30;;;1.42;;
5416;SDS011;2731;50.754;12.990;2023-04-03T00:38:07;6.43;;;1.52;;
5416;SDS011;2731;50.754;12.990;2023-04-03T00:40:34;8.57;;;1.50;;
5416;SDS011;2731;50.754;12.990;2023-04-03T00:43:00;5.20;;;1.50;;
5416;SDS011;2731;50.754;12.990;2023-04-03T00:48:04;3.53;;;1.00;;
5416;SDS011;2731;50.754;12.990;2023-04-03T00:50:31;4.45;;;1.65;;
5416;SDS011;2731;50.754;12.990;2023-04-03T00:52:58;10.85;;;1.63;;
5416;SDS011;2731;50.754;12.990;2023-04-03T00:55:25;3.80;;;1.48;;
5416;SDS011;2731;50.754;12.990;2023-04-03T00:57:52;6.18;;;1.63;;
5416;SDS011;2731;50.754;12.990;2023-04-03T01:00:20;3.63;;;1.30;;
5416;SDS011;2731;50.754;12.990;2023-04-03T01:02:48;3.88;;;1.50;;
5416;SDS011;2731;50.754;12.990;2023-04-03T01:05:15;4.80;;;1.40;;
5416;SDS011;2731;50.754;12.990;2023-04-03T01:07:42;4.80;;;1.67;;
5416;SDS011;2731;50.754;12.990;2023-04-03T01:10:10;7.47;;;2.28;;
5416;SDS011;2731;50.754;12.990;2023-04-03T01:12:39;2.83;;;1.38;;
5416;SDS011;2731;50.754;12.990;2023-04-03T01:15:10;4.45;;;1.58;;
5416;SDS011;2731;50.754;12.990;2023-04-03T01:17:52;3.88;;;1.10;;
5416;SDS011;2731;50.754;12.990;2023-04-03T01:25:30;5.63;;;1.20;;
5416;SDS011;2731;50.754;12.990;2023-04-03T01:27:57;3.90;;;1.30;;
5416;SDS011;2731;50.754;12.990;2023-04-03T01:30:24;3.55;;;1.30;;
5416;SDS011;2731;50.754;12.990;2023-04-03T01:32:51;5.30;;;1.27;;
5416;SDS011;2731;50.754;12.990;2023-04-03T01:35:17;6.22;;;1.50;;
5416;SDS011;2731;50.754;12.990;2023-04-03T01:37:45;3.55;;;1.27;;
5416;SDS011;2731;50.754;12.990;2023-04-03T01:40:11;6.47;;;1.38;;
5416;SDS011;2731;50.754;12.990;2023-04-03T01:42:40;2.55;;;1.13;;
5416;SDS011;2731;50.754;12.990;2023-04-03T01:45:10;7.88;;;1.48;;
5416;SDS011;2731;50.754;12.990;2023-04-03T01:47:38;6.88;;;1.50;;
5416;SDS011;2731;50.754;12.990;2023-04-03T01:50:04;8.07;;;2.35;;
5416;SDS011;2731;50.754;12.990;2023-04-03T01:52:32;4.70;;;1.63;;
5416;SDS011;2731;50.754;12.990;2023-04-03T01:54:58;5.07;;;1.88;;
5416;SDS011;2731;50.754;12.990;2023-04-03T01:57:24;4.78;;;1.75;;
5416;SDS011;2731;50.754;12.990;2023-04-03T01:59:50;5.55;;;1.30;;
5416;SDS011;2731;50.754;12.990;2023-04-03T02:02:16;3.42;;;1.20;;
5416;SDS011;2731;50.754;12.990;2023-04-03T02:04:42;3.47;;;1.40;;
5416;SDS011;2731;50.754;12.990;2023-04-03T02:07:08;3.30;;;1.15;;
5416;SDS011;2731;50.754;12.990;2023-04-03T02:09:35;5.82;;;1.30;;
5416;SDS011;2731;50.754;12.990;2023-04-03T02:12:01;2.35;;;0.93;;
5416;SDS011;2731;50.754;12.990;2023-04-03T02:14:27;6.97;;;1.33;;
5416;SDS011;2731;50.754;12.990;2023-04-03T02:16:53;5.10;;;1.60;;
5416;SDS011;2731;50.754;12.990;2023-04-03T02:19:19;4.20;;;1.40;;
5416;SDS011;2731;50.754;12.990;2023-04-03T02:21:45;5.03;;;2.20;;
5416;SDS011;2731;50.754;12.990;2023-04-03T02:24:11;14.48;;;1.77;;
5416;SDS011;2731;50.754;12.990;2023-04-03T02:26:38;5.82;;;1.48;;
5416;SDS011;2731;50.754;12.990;2023-04-03T02:29:05;4.20;;;1.55;;
5416;SDS011;2731;50.754;12.990;2023-04-03T02:31:32;2.80;;;1.50;;
5416;SDS011;2731;50.754;12.990;2023-04-03T02:33:58;3.38;;;1.35;;
5416;SDS011;2731;50.754;12.990;2023-04-03T02:36:25;3.83;;;1.42;;
5416;SDS011;2731;50.754;12.990;2023-04-03T02:38:52;3.38;;;1.70;;
5416;SDS011;2731;50.754;12.990;2023-04-03T02:41:18;3.25;;;1.67;;
5416;SDS011;2731;50.754;12.990;2023-04-03T02:43:46;3.10;;;1.17;;
5416;SDS011;2731;50.754;12.990;2023-04-03T02:46:12;3.40;;;1.52;;
5416;SDS011;2731;50.754;12.990;2023-04-03T02:48:41;3.33;;;1.58;;
5416;SDS011;2731;50.754;12.990;2023-04-03T02:51:06;3.92;;;1.17;;
5416;SDS011;2731;50.754;12.990;2023-04-03T02:53:33;2.17;;;1.30;;
5416;SDS011;2731;50.754;12.990;2023-04-03T02:55:59;4.80;;;2.13;;
5416;SDS011;2731;50.754;12.990;2023-04-03T02:58:25;5.47;;;1.55;;
5416;SDS011;2731;50.754;12.990;2023-04-03T03:00:51;3.42;;;1.65;;
5416;SDS011;2731;50.754;12.990;2023-04-03T03:03:18;4.15;;;1.50;;
5416;SDS011;2731;50.754;12.990;2023-04-03T03:05:44;5.60;;;1.60;;
5416;SDS011;2731;50.754;12.990;2023-04-03T03:08:10;3.97;;;1.70;;
5416;SDS011;2731;50.754;12.990;2023-04-03T03:10:36;7.45;;;2.63;;
5416;SDS011;2731;50.754;12.990;2023-04-03T03:13:02;4.40;;;2.20;;
5416;SDS011;2731;50.754;12.990;2023-04-03T03:15:28;4.25;;;1.88;;
5416;SDS011;2731;50.754;12.990;2023-04-03T03:17:55;3.20;;;1.52;;
5416;SDS011;2731;50.754;12.990;2023-04-03T03:20:27;4.25;;;1.70;;
5416;SDS011;2731;50.754;12.990;2023-04-03T03:22:53;8.18;;;1.85;;
5416;SDS011;2731;50.754;12.990;2023-04-03T03:25:19;4.70;;;1.58;;
5416;SDS011;2731;50.754;12.990;2023-04-03T03:27:45;3.28;;;1.55;;
5416;SDS011;2731;50.754;12.990;2023-04-03T03:30:12;5.72;;;1.70;;
5416;SDS011;2731;50.754;12.990;2023-04-03T03:32:38;5.05;;;1.90;;
5416;SDS011;2731;50.754;12.990;2023-04-03T03:35:06;4.93;;;1.20;;
5416;SDS011;2731;50.754;12.990;2023-04-03T03:37:32;6.55;;;2.20;;
5416;SDS011;2731;50.754;12.990;2023-04-03T03:39:58;4.75;;;1.60;;
5416;SDS011;2731;50.754;12.990;2023-04-03T03:42:24;6.10;;;1.38;;
5416;SDS011;2731;50.754;12.990;2023-04-03T03:44:52;5.47;;;2.53;;
5416;SDS011;2731;50.754;12.990;2023-04-03T03:47:18;4.35;;;1.90;;
5416;SDS011;2731;50.754;12.990;2023-04-03T03:49:45;3.92;;;1.30;;
5416;SDS011;2731;50.754;12.990;2023-04-03T03:52:12;5.47;;;1.42;;
5416;SDS011;2731;50.754;12.990;2023-04-03T03:54:39;6.07;;;2.55;;
5416;SDS011;2731;50.754;12.990;2023-04-03T03:57:07;6.60;;;1.73;;
5416;SDS011;2731;50.754;12.990;2023-04-03T03:59:34;4.45;;;1.55;;
5416;SDS011;2731;50.754;12.990;2023-04-03T04:02:00;3.22;;;1.48;;
5416;SDS011;2731;50.754;12.990;2023-04-03T04:04:26;2.42;;;1.23;;
5416;SDS011;2731;50.754;12.990;2023-04-03T04:06:52;11.15;;;2.17;;
5416;SDS011;2731;50.754;12.990;2023-04-03T04:09:18;6.22;;;1.40;;
5416;SDS011;2731;50.754;12.990;2023-04-03T04:11:44;2.30;;;1.00;;
5416;SDS011;2731;50.754;12.990;2023-04-03T04:14:10;4.35;;;1.50;;
5416;SDS011;2731;50.754;12.990;2023-04-03T04:16:38;5.28;;;1.80;;
5416;SDS011;2731;50.754;12.990;2023-04-03T04:19:04;4.75;;;2.03;;
5416;SDS011;2731;50.754;12.990;2023-04-03T04:21:30;4.55;;;2.08;;
5416;SDS011;2731;50.754;12.990;2023-04-03T04:23:56;2.95;;;1.60;;
5416;SDS011;2731;50.754;12.990;2023-04-03T04:26:22;4.03;;;1.42;;
5416;SDS011;2731;50.754;12.990;2023-04-03T04:28:49;2.92;;;1.30;;
5416;SDS011;2731;50.754;12.990;2023-04-03T04:31:15;7.70;;;2.10;;
5416;SDS011;2731;50.754;12.990;2023-04-03T04:33:41;3.45;;;1.58;;
5416;SDS011;2731;50.754;12.990;2023-04-03T04:36:08;3.15;;;1.73;;
5416;SDS011;2731;50.754;12.990;2023-04-03T04:38:35;5.65;;;1.48;;
5416;SDS011;2731;50.754;12.990;2023-04-03T04:41:03;8.95;;;2.05;;
5416;SDS011;2731;50.754;12.990;2023-04-03T04:43:29;5.70;;;1.75;;
5416;SDS011;2731;50.754;12.990;2023-04-03T04:46:04;5.50;;;1.73;;
5416;SDS011;2731;50.754;12.990;2023-04-03T04:48:30;4.20;;;1.48;;
5416;SDS011;2731;50.754;12.990;2023-04-03T04:50:57;8.88;;;2.13;;
5416;SDS011;2731;50.754;12.990;2023-04-03T04:53:24;3.13;;;1.73;;
5416;SDS011;2731;50.754;12.990;2023-04-03T04:55:51;5.35;;;1.55;;
5416;SDS011;2731;50.754;12.990;2023-04-03T04:58:17;7.18;;;2.50;;
5416;SDS011;2731;50.754;12.990;2023-04-03T05:00:43;6.22;;;2.08;;
5416;SDS011;2731;50.754;12.990;2023-04-03T05:03:09;4.70;;;1.50;;
5416;SDS011;2731;50.754;12.990;2023-04-03T05:05:36;8.30;;;2.08;;
5416;SDS011;2731;50.754;12.990;2023-04-03T05:08:02;7.45;;;1.67;;
5416;SDS011;2731;50.754;12.990;2023-04-03T05:10:28;3.95;;;1.23;;
5416;SDS011;2731;50.754;12.990;2023-04-03T05:12:54;8.20;;;1.50;;
5416;SDS011;2731;50.754;12.990;2023-04-03T05:15:20;6.63;;;2.65;;
5416;SDS011;2731;50.754;12.990;2023-04-03T05:17:46;4.10;;;1.77;;
5416;SDS011;2731;50.754;12.990;2023-04-03T05:20:12;5.00;;;1.77;;
5416;SDS011;2731;50.754;12.990;2023-04-03T05:22:39;5.78;;;1.23;;
5416;SDS011;2731;50.754;12.990;2023-04-03T05:25:05;7.53;;;1.88;;
5416;SDS011;2731;50.754;12.990;2023-04-03T05:27:31;5.18;;;1.70;;
5416;SDS011;2731;50.754;12.990;2023-04-03T05:29:57;3.47;;;1.58;;
5416;SDS011;2731;50.754;12.990;2023-04-03T05:32:24;3.53;;;1.80;;
5416;SDS011;2731;50.754;12.990;2023-04-03T05:34:52;7.25;;;2.38;;
5416;SDS011;2731;50.754;12.990;2023-04-03T05:37:21;6.43;;;2.55;;
5416;SDS011;2731;50.754;12.990;2023-04-03T05:39:47;5.97;;;2.33;;
5416;SDS011;2731;50.754;12.990;2023-04-03T05:42:13;5.88;;;1.50;;
5416;SDS011;2731;50.754;12.990;2023-04-03T05:44:40;7.78;;;2.20;;
5416;SDS011;2731;50.754;12.990;2023-04-03T05:47:06;6.95;;;2.05;;
5416;SDS011;2731;50.754;12.990;2023-04-03T05:49:34;4.50;;;2.53;;
5416;SDS011;2731;50.754;12.990;2023-04-03T05:52:01;3.83;;;1.80;;
5416;SDS011;2731;50.754;12.990;2023-04-03T05:54:28;6.22;;;2.83;;
5416;SDS011;2731;50.754;12.990;2023-04-03T05:56:54;5.75;;;2.55;;
5416;SDS011;2731;50.754;12.990;2023-04-03T05:59:21;4.72;;;2.15;;
5416;SDS011;2731;50.754;12.990;2023-04-03T06:01:47;10.25;;;2.55;;
5416;SDS011;2731;50.754;12.990;2023-04-03T06:04:15;3.70;;;2.10;;
5416;SDS011;2731;50.754;12.990;2023-04-03T06:09:10;3.92;;;2.42;;
5416;SDS011;2731;50.754;12.990;2023-04-03T06:11:36;6.63;;;2.28;;
5416;SDS011;2731;50.754;12.990;2023-04-03T06:14:02;9.15;;;2.75;;
5416;SDS011;2731;50.754;12.990;2023-04-03T06:16:29;7.97;;;3.33;;
5416;SDS011;2731;50.754;12.990;2023-04-03T06:18:55;10.13;;;3.42;;
5416;SDS011;2731;50.754;12.990;2023-04-03T06:21:22;8.05;;;3.10;;
5416;SDS011;2731;50.754;12.990;2023-04-03T06:23:49;8.02;;;2.53;;
5416;SDS011;2731;50.754;12.990;2023-04-03T06:26:17;15.55;;;3.60;;
5416;SDS011;2731;50.754;12.990;2023-04-03T06:28:43;10.57;;;2.60;;
5416;SDS011;2731;50.754;12.990;2023-04-03T06:31:12;10.27;;;3.17;;
5416;SDS011;2731;50.754;12.990;2023-04-03T06:33:38;7.03;;;2.60;;
5416;SDS011;2731;50.754;12.990;2023-04-03T06:36:04;10.50;;;3.20;;
5416;SDS011;2731;50.754;12.990;2023-04-03T06:38:32;5.93;;;2.88;;
5416;SDS011;2731;50.754;12.990;2023-04-03T06:40:58;8.70;;;3.17;;
5416;SDS011;2731;50.754;12.990;2023-04-03T06:43:25;5.28;;;2.20;;
5416;SDS011;2731;50.754;12.990;2023-04-03T06:45:52;8.20;;;3.38;;
5416;SDS011;2731;50.754;12.990;2023-04-03T06:48:21;6.20;;;3.20;;
5416;SDS011;2731;50.754;12.990;2023-04-03T06:50:48;8.10;;;3.00;;
5416;SDS011;2731;50.754;12.990;2023-04-03T06:53:15;5.97;;;2.75;;
5416;SDS011;2731;50.754;12.990;2023-04-03T06:55:43;5.95;;;2.28;;
5416;SDS011;2731;50.754;12.990;2023-04-03T06:58:10;7.13;;;3.60;;
5416;SDS011;2731;50.754;12.990;2023-04-03T07:00:36;5.97;;;2.40;;
5416;SDS011;2731;50.754;12.990;2023-04-03T07:03:02;7.13;;;2.53;;
5416;SDS011;2731;50.754;12.990;2023-04-03T07:05:28;5.72;;;2.38;;
5416;SDS011;2731;50.754;12.990;2023-04-03T07:07:55;7.63;;;3.05;;
5416;SDS011;2731;50.754;12.990;2023-04-03T07:10:22;9.75;;;2.40;;
5416;SDS011;2731;50.754;12.990;2023-04-03T07:12:48;7.03;;;2.88;;
5416;SDS011;2731;50.754;12.990;2023-04-03T07:15:14;11.52;;;3.45;;
5416;SDS011;2731;50.754;12.990;2023-04-03T07:17:40;5.55;;;2.70;;
5416;SDS011;2731;50.754;12.990;2023-04-03T07:20:07;5.82;;;3.13;;
5416;SDS011;2731;50.754;12.990;2023-04-03T07:22:33;2.72;;;2.47;;
5416;SDS011;2731;50.754;12.990;2023-04-03T07:25:01;8.13;;;2.83;;
5416;SDS011;2731;50.754;12.990;2023-04-03T07:27:28;5.55;;;3.03;;
5416;SDS011;2731;50.754;12.990;2023-04-03T07:29:54;7.53;;;2.38;;
5416;SDS011;2731;50.754;12.990;2023-04-03T07:32:22;5.32;;;2.60;;
5416;SDS011;2731;50.754;12.990;2023-04-03T07:34:48;9.88;;;3.15;;
5416;SDS011;2731;50.754;12.990;2023-04-03T07:37:15;4.63;;;2.25;;
5416;SDS011;2731;50.754;12.990;2023-04-03T07:39:43;7.90;;;2.70;;
5416;SDS011;2731;50.754;12.990;2023-04-03T07:42:10;4.63;;;2.90;;
5416;SDS011;2731;50.754;12.990;2023-04-03T07:44:38;3.42;;;2.55;;
5416;SDS011;2731;50.754;12.990;2023-04-03T07:47:06;3.80;;;2.17;;
5416;SDS011;2731;50.754;12.990;2023-04-03T07:49:33;5.63;;;2.67;;
5416;SDS011;2731;50.754;12.990;2023-04-03T07:52:03;8.27;;;2.58;;
5416;SDS011;2731;50.754;12.990;2023-04-03T07:54:33;4.15;;;2.55;;
5416;SDS011;2731;50.754;12.990;2023-04-03T07:57:00;10.63;;;3.85;;
5416;SDS011;2731;50.754;12.990;2023-04-03T07:59:27;5.75;;;2.53;;
5416;SDS011;2731;50.754;12.990;2023-04-03T08:01:53;5.50;;;2.45;;
5416;SDS011;2731;50.754;12.990;2023-04-03T08:04:22;9.77;;;2.90;;
5416;SDS011;2731;50.754;12.990;2023-04-03T08:06:49;4.15;;;2.25;;
5416;SDS011;2731;50.754;12.990;2023-04-03T08:09:16;3.25;;;2.20;;
5416;SDS011;2731;50.754;12.990;2023-04-03T08:11:44;4.38;;;2.55;;
5416;SDS011;2731;50.754;12.990;2023-04-03T08:14:11;3.70;;;1.80;;
5416;SDS011;2731;50.754;12.990;2023-04-03T08:16:41;5.32;;;2.10;;
5416;SDS011;2731;50.754;12.990;2023-04-03T08:19:10;3.55;;;2.25;;
5416;SDS011;2731;50.754;12.990;2023-04-03T08:21:42;7.82;;;2.47;;
5416;SDS011;2731;50.754;12.990;2023-04-03T08:24:08;6.10;;;2.85;;
5416;SDS011;2731;50.754;12.990;2023-04-03T08:26:36;4.50;;;1.88;;
5416;SDS011;2731;50.754;12.990;2023-04-03T08:29:03;4.22;;;2.00;;
5416;SDS011;2731;50.754;12.990;2023-04-03T08:31:29;5.35;;;2.28;;
5416;SDS011;2731;50.754;12.990;2023-04-03T08:33:56;5.30;;;2.50;;
5416;SDS011;2731;50.754;12.990;2023-04-03T08:36:26;7.47;;;2.63;;
5416;SDS011;2731;50.754;12.990;2023-04-03T08:38:53;4.72;;;1.95;;
5416;SDS011;2731;50.754;12.990;2023-04-03T08:43:56;4.00;;;2.30;;
5416;SDS011;2731;50.754;12.990;2023-04-03T08:46:25;6.05;;;2.15;;
5416;SDS011;2731;50.754;12.990;2023-04-03T08:48:56;3.83;;;1.50;;
5416;SDS011;2731;50.754;12.990;2023-04-03T08:51:25;3.85;;;1.77;;
5416;SDS011;2731;50.754;12.990;2023-04-03T08:53:56;8.07;;;2.50;;
5416;SDS011;2731;50.754;12.990;2023-04-03T08:56:24;4.90;;;1.67;;
5416;SDS011;2731;50.754;12.990;2023-04-03T08:58:52;3.80;;;1.63;;
5416;SDS011;2731;50.754;12.990;2023-04-03T09:01:23;4.25;;;2.45;;
5416;SDS011;2731;50.754;12.990;2023-04-03T09:03:51;4.90;;;2.13;;
5416;SDS011;2731;50.754;12.990;2023-04-03T09:06:21;4.40;;;2.13;;
5416;SDS011;2731;50.754;12.990;2023-04-03T09:14:17;5.63;;;2.00;;
5416;SDS011;2731;50.754;12.990;2023-04-03T09:17:04;3.92;;;2.17;;
5416;SDS011;2731;50.754;12.990;2023-04-03T09:19:46;6.78;;;2.08;;
5416;SDS011;2731;50.754;12.990;2023-04-03T09:24:43;6.22;;;2.67;;
5416;SDS011;2731;50.754;12.990;2023-04-03T09:27:13;4.00;;;1.85;;
5416;SDS011;2731;50.754;12.990;2023-04-03T09:29:43;4.03;;;2.20;;
5416;SDS011;2731;50.754;12.990;2023-04-03T09:32:28;3.47;;;2.05;;
5416;SDS011;2731;50.754;12.990;2023-04-03T09:34:56;6.03;;;2.33;;
5416;SDS011;2731;50.754;12.990;2023-04-03T09:37:38;4.78;;;1.92;;
5416;SDS011;2731;50.754;12.990;2023-04-03T09:40:05;3.13;;;1.77;;
5416;SDS011;2731;50.754;12.990;2023-04-03T09:42:32;5.97;;;2.13;;
5416;SDS011;2731;50.754;12.990;2023-04-03T09:45:01;5.15;;;2.17;;
5416;SDS011;2731;50.754;12.990;2023-04-03T09:47:28;7.68;;;2.85;;
5416;SDS011;2731;50.754;12.990;2023-04-03T09:50:18;4.80;;;2.00;;
5416;SDS011;2731;50.754;12.990;2023-04-03T09:52:45;9.57;;;2.97;;
5416;SDS011;2731;50.754;12.990;2023-04-03T09:55:15;5.05;;;2.60;;
5416;SDS011;2731;50.754;12.990;2023-04-03T09:57:42;7.43;;;3.67;;
5416;SDS011;2731;50.754;12.990;2023-04-03T10:00:25;6.18;;;2.33;;
5416;SDS011;2731;50.754;12.990;2023-04-03T10:02:53;3.33;;;2.13;;
5416;SDS011;2731;50.754;12.990;2023-04-03T10:05:37;3.28;;;2.00;;
5416;SDS011;2731;50.754;12.990;2023-04-03T10:10:42;4.63;;;1.70;;
5416;SDS011;2731;50.754;12.990;2023-04-03T10:13:13;4.63;;;1.70;;
5416;SDS011;2731;50.754;12.990;2023-04-03T10:15:45;5.70;;;1.98;;
5416;SDS011;2731;50.754;12.990;2023-04-03T10:23:32;5.00;;;1.55;;
5416;SDS011;2731;50.754;12.990;2023-04-03T10:28:31;7.05;;;2.53;;
5416;SDS011;2731;50.754;12.990;2023-04-03T10:31:09;4.45;;;1.80;;
5416;SDS011;2731;50.754;12.990;2023-04-03T10:33:55;8.13;;;2.08;;
5416;SDS011;2731;50.754;12.990;2023-04-03T10:36:32;3.05;;;2.47;;
5416;SDS011;2731;50.754;12.990;2023-04-03T10:44:31;3.20;;;1.80;;
5416;SDS011;2731;50.754;12.990;2023-04-03T10:57:47;4.90;;;2.65;;
5416;SDS011;2731;50.754;12.990;2023-04-03T11:00:20;3.22;;;2.33;;
5416;SDS011;2731;50.754;12.990;2023-04-03T11:02:54;2.65;;;1.40;;
5416;SDS011;2731;50.754;12.990;2023-04-03T11:05:28;4.57;;;2.05;;
5416;SDS011;2731;50.754;12.990;2023-04-03T11:07:57;5.55;;;1.63;;
5416;SDS011;2731;50.754;12.990;2023-04-03T11:12:59;6.70;;;2.00;;
5416;SDS011;2731;50.754;12.990;2023-04-03T11:15:29;3.67;;;1.65;;
5416;SDS011;2731;50.754;12.990;2023-04-03T11:18:00;3.70;;;1.50;;
5416;SDS011;2731;50.754;12.990;2023-04-03T11:20:32;3.15;;;1.55;;
5416;SDS011;2731;50.754;12.990;2023-04-03T11:23:08;4.30;;;1.70;;
5416;SDS011;2731;50.754;12.990;2023-04-03T11:25:39;3.30;;;1.90;;
5416;SDS011;2731;50.754;12.990;2023-04-03T11:28:11;2.28;;;1.60;;
5416;SDS011;2731;50.754;12.990;2023-04-03T11:35:56;2.75;;;1.38;;
5416;SDS011;2731;50.754;12.990;2023-04-03T11:38:28;4.25;;;1.40;;
5416;SDS011;2731;50.754;12.990;2023-04-03T11:40:57;3.75;;;1.35;;
5416;SDS011;2731;50.754;12.990;2023-04-03T11:43:25;5.50;;;1.83;;
5416;SDS011;2731;50.754;12.990;2023-04-03T11:45:55;3.63;;;1.20;;
5416;SDS011;2731;50.754;12.990;2023-04-03T11:51:00;5.40;;;1.02;;
5416;SDS011;2731;50.754;12.990;2023-04-03T11:55:57;6.57;;;1.45;;
5416;SDS011;2731;50.754;12.990;2023-04-03T11:58:28;2.17;;;1.08;;
5416;SDS011;2731;50.754;12.990;2023-04-03T12:00:59;9.77;;;1.90;;
5416;SDS011;2731;50.754;12.990;2023-04-03T12:26:22;4.80;;;1.42;;
5416;SDS011;2731;50.754;12.990;2023-04-03T12:28:50;3.22;;;1.00;;
5416;SDS011;2731;50.754;12.990;2023-04-03T12:31:18;4.18;;;0.95;;
5416;SDS011;2731;50.754;12.990;2023-04-03T12:33:52;4.53;;;0.90;;
5416;SDS011;2731;50.754;12.990;2023-04-03T12:36:30;1.65;;;0.82;;
5416;SDS011;2731;50.754;12.990;2023-04-03T12:39:10;2.10;;;1.42;;
5416;SDS011;2731;50.754;12.990;2023-04-03T12:41:53;6.50;;;1.55;;
5416;SDS011;2731;50.754;12.990;2023-04-03T12:44:35;4.57;;;1.02;;
5416;SDS011;2731;50.754;12.990;2023-04-03T12:47:08;2.50;;;0.75;;
5416;SDS011;2731;50.754;12.990;2023-04-03T12:49:41;1.63;;;0.70;;
5416;SDS011;2731;50.754;12.990;2023-04-03T12:52:17;2.08;;;1.27;;
5416;SDS011;2731;50.754;12.990;2023-04-03T12:54:45;4.45;;;1.05;;
5416;SDS011;2731;50.754;12.990;2023-04-03T12:57:17;4.47;;;1.40;;
5416;SDS011;2731;50.754;12.990;2023-04-03T12:59:44;2.97;;;1.25;;
5416;SDS011;2731;50.754;12.990;2023-04-03T13:02:44;6.28;;;1.33;;
5416;SDS011;2731;50.754;12.990;2023-04-03T13:05:08;3.10;;;0.90;;
5416;SDS011;2731;50.754;12.990;2023-04-03T13:07:35;3.50;;;1.15;;
5416;SDS011;2731;50.754;12.990;2023-04-03T13:12:33;2.17;;;0.98;;
5416;SDS011;2731;50.754;12.990;2023-04-03T13:15:03;3.78;;;0.73;;
5416;SDS011;2731;50.754;12.990;2023-04-03T13:17:41;3.92;;;1.58;;
5416;SDS011;2731;50.754;12.990;2023-04-03T13:20:16;2.60;;;0.90;;
5416;SDS011;2731;50.754;12.990;2023-04-03T13:22:53;1.95;;;0.75;;
5416;SDS011;2731;50.754;12.990;2023-04-03T13:25:23;2.55;;;1.13;;
5416;SDS011;2731;50.754;12.990;2023-04-03T13:28:00;2.53;;;1.00;;
5416;SDS011;2731;50.754;12.990;2023-04-03T13:30:31;1.98;;;0.73;;
5416;SDS011;2731;50.754;12.990;2023-04-03T13:32:59;2.75;;;0.73;;
5416;SDS011;2731;50.754;12.990;2023-04-03T13:35:32;4.97;;;1.00;;
5416;SDS011;2731;50.754;12.990;2023-04-03T13:38:01;2.10;;;0.73;;
5416;SDS011;2731;50.754;12.990;2023-04-03T13:40:27;2.40;;;1.00;;
5416;SDS011;2731;50.754;12.990;2023-04-03T13:43:37;5.15;;;1.33;;
5416;SDS011;2731;50.754;12.990;2023-04-03T13:48:49;8.10;;;1.48;;
5416;SDS011;2731;50.754;12.990;2023-04-03T13:53:56;3.35;;;1.10;;
5416;SDS011;2731;50.754;12.990;2023-04-03T13:56:32;5.53;;;1.63;;
5416;SDS011;2731;50.754;12.990;2023-04-03T13:59:03;2.28;;;0.90;;
5416;SDS011;2731;50.754;12.990;2023-04-03T14:01:36;3.58;;;1.08;;
5416;SDS011;2731;50.754;12.990;2023-04-03T14:04:11;4.78;;;1.20;;
5416;SDS011;2731;50.754;12.990;2023-04-03T14:06:37;2.95;;;0.85;;
5416;SDS011;2731;50.754;12.990;2023-04-03T14:09:03;2.55;;;0.85;;
5416;SDS011;2731;50.754;12.990;2023-04-03T14:11:30;5.82;;;2.08;;
5416;SDS011;2731;50.754;12.990;2023-04-03T14:14:00;2.65;;;1.17;;
5416;SDS011;2731;50.754;12.990;2023-04-03T14:16:29;1.63;;;0.88;;
5416;SDS011;2731;50.754;12.990;2023-04-03T14:18:56;4.30;;;0.98;;
5416;SDS011;2731;50.754;12.990;2023-04-03T14:21:22;2.90;;;1.00;;
5416;SDS011;2731;50.754;12.990;2023-04-03T14:23:51;4.40;;;1.13;;
5416;SDS011;2731;50.754;12.990;2023-04-03T14:26:18;4.63;;;1.10;;
5416;SDS011;2731;50.754;12.990;2023-04-03T14:28:46;4.55;;;0.90;;
5416;SDS011;2731;50.754;12.990;2023-04-03T14:31:13;2.85;;;1.33;;
5416;SDS011;2731;50.754;12.990;2023-04-03T14:33:41;3.03;;;1.10;;
5416;SDS011;2731;50.754;12.990;2023-04-03T14:36:18;4.72;;;1.38;;
5416;SDS011;2731;50.754;12.990;2023-04-03T14:38:46;2.92;;;0.88;;
5416;SDS011;2731;50.754;12.990;2023-04-03T14:41:15;3.58;;;1.10;;
5416;SDS011;2731;50.754;12.990;2023-04-03T14:43:44;4.55;;;1.30;;
5416;SDS011;2731;50.754;12.990;2023-04-03T14:46:12;4.90;;;2.05;;
5416;SDS011;2731;50.754;12.990;2023-04-03T14:48:39;3.40;;;1.48;;
5416;SDS011;2731;50.754;12.990;2023-04-03T14:51:11;5.93;;;1.35;;
5416;SDS011;2731;50.754;12.990;2023-04-03T14:53:39;3.78;;;1.45;;
5416;SDS011;2731;50.754;12.990;2023-04-03T14:56:26;2.38;;;1.10;;
5416;SDS011;2731;50.754;12.990;2023-04-03T14:58:57;3.90;;;1.00;;
5416;SDS011;2731;50.754;12.990;2023-04-03T15:01:24;4.20;;;1.30;;
5416;SDS011;2731;50.754;12.990;2023-04-03T15:03:50;2.55;;;0.80;;
5416;SDS011;2731;50.754;12.990;2023-04-03T15:06:17;5.97;;;1.10;;
5416;SDS011;2731;50.754;12.990;2023-04-03T15:08:48;5.55;;;1.23;;
5416;SDS011;2731;50.754;12.990;2023-04-03T15:11:14;3.58;;;0.80;;
5416;SDS011;2731;50.754;12.990;2023-04-03T15:13:41;3.00;;;1.20;;
5416;SDS011;2731;50.754;12.990;2023-04-03T15:16:12;5.03;;;1.00;;
5416;SDS011;2731;50.754;12.990;2023-04-03T15:18:40;2.10;;;1.00;;
5416;SDS011;2731;50.754;12.990;2023-04-03T15:21:06;6.00;;;1.52;;
5416;SDS011;2731;50.754;12.990;2023-04-03T15:23:32;7.05;;;1.17;;
5416;SDS011;2731;50.754;12.990;2023-04-03T15:25:59;6.55;;;1.83;;
5416;SDS011;2731;50.754;12.990;2023-04-03T15:28:39;3.63;;;0.90;;
5416;SDS011;2731;50.754;12.990;2023-04-03T15:31:08;2.65;;;1.45;;
5416;SDS011;2731;50.754;12.990;2023-04-03T15:33:36;4.97;;;1.42;;
5416;SDS011;2731;50.754;12.990;2023-04-03T15:36:02;4.90;;;1.38;;
5416;SDS011;2731;50.754;12.990;2023-04-03T15:38:31;2.90;;;1.10;;
5416;SDS011;2731;50.754;12.990;2023-04-03T15:41:01;5.20;;;1.20;;
5416;SDS011;2731;50.754;12.990;2023-04-03T15:43:27;4.25;;;1.05;;
5416;SDS011;2731;50.754;12.990;2023-04-03T15:45:56;3.35;;;1.30;;
5416;SDS011;2731;50.754;12.990;2023-04-03T15:48:23;2.05;;;1.20;;
5416;SDS011;2731;50.754;12.990;2023-04-03T15:50:51;2.17;;;0.93;;
5416;SDS011;2731;50.754;12.990;2023-04-03T15:53:17;5.68;;;1.45;;
5416;SDS011;2731;50.754;12.990;2023-04-03T15:55:43;4.63;;;1.20;;
5416;SDS011;2731;50.754;12.990;2023-04-03T15:58:11;6.30;;;1.55;;
5416;SDS011;2731;50.754;12.990;2023-04-03T16:00:37;5.78;;;1.65;;
5416;SDS011;2731;50.754;12.990;2023-04-03T16:03:06;2.88;;;1.15;;
5416;SDS011;2731;50.754;12.990;2023-04-03T16:05:38;2.55;;;0.82;;
5416;SDS011;2731;50.754;12.990;2023-04-03T16:08:05;2.75;;;1.50;;
5416;SDS011;2731;50.754;12.990;2023-04-03T16:10:33;2.33;;;1.00;;
5416;SDS011;2731;50.754;12.990;2023-04-03T16:13:01;1.95;;;1.05;;
5416;SDS011;2731;50.754;12.990;2023-04-03T16:15:35;5.22;;;1.25;;
5416;SDS011;2731;50.754;12.990;2023-04-03T16:18:02;4.03;;;1.60;;
5416;SDS011;2731;50.754;12.990;2023-04-03T16:20:28;3.08;;;0.80;;
5416;SDS011;2731;50.754;12.990;2023-04-03T16:22:56;1.75;;;0.90;;
5416;SDS011;2731;50.754;12.990;2023-04-03T16:25:23;3.35;;;1.20;;
5416;SDS011;2731;50.754;12.990;2023-04-03T16:27:52;4.93;;;1.08;;
5416;SDS011;2731;50.754;12.990;2023-04-03T16:30:18;5.20;;;1.10;;
5416;SDS011;2731;50.754;12.990;2023-04-03T16:32:44;4.25;;;1.10;;
5416;SDS011;2731;50.754;12.990;2023-04-03T16:35:12;5.78;;;1.65;;
5416;SDS011;2731;50.754;12.990;2023-04-03T16:37:39;2.75;;;1.15;;
5416;SDS011;2731;50.754;12.990;2023-04-03T16:40:08;2.10;;;1.05;;